Airport View

Enter AWOS ICAO identifier for current METAR.

ex. KFNL

KMDQ 202355Z AUTO 16004KT 10SM CLR 27/15 A3019 RMK A02 T02710145 10311 20271 403110206

21 Sep 2019 00:24

Frequency: 120.000

Phone: 256-829-1242

Other Area AWOS: KFYM - KHSV - KDCU - K4A6

TAF KHSV 202323Z 2100/2124 12009KT P6SM SCT070 BKN250 FM210100 13004KT P6SM SCT250 FM211300 15007KT P6SM FEW250